Dale, Illinois
Current Conditions -  °F | °C
As of 4:35 AM on Saturday 22 Nov 2014 (Local Time) from KHSB Reporting Station
Scattered Clouds Scattered Clouds  
Wind Chill: 42°   Ceiling: Unl
Heat Index: 45°   Visibility: 10mi
Dew Point: 37°   Wind: 6mph
Humidity: 73%   Direction: 170°S
Pressure: 30.24"   Gusts: NA
Location:  37.99°N, 88.49°W
Report Text: KHSB 221035Z AUTO 17005KT 10SM SCT070 SCT100 07/03 A3024 RMK AO2 T00720026
Loading
Personal Weather Stations






























Interactive Weather Map New forecast layout! Learn more

10-Day Weather Forecast

Advertisements
Track Severe Weather on mobile